createdAt,value
2023-02-24T05:21:48.508Z,55.00
2023-02-24T05:36:50.863Z,51.03
2023-02-24T05:52:00.936Z,55.53
2023-02-24T06:07:04.681Z,45.88
2023-02-24T06:22:10.989Z,41.70
2023-02-24T06:37:15.980Z,36.65
2023-02-24T06:52:19.385Z,34.55
2023-02-24T07:07:23.510Z,31.25
2023-02-24T07:22:25.583Z,32.17
2023-02-24T07:37:31.855Z,36.70
2023-02-24T07:52:33.974Z,39.25
2023-02-24T08:07:36.195Z,38.45
2023-02-24T08:22:38.713Z,35.10
2023-02-24T08:37:47.481Z,39.60
2023-02-24T08:52:49.687Z,33.05
2023-02-24T09:07:54.860Z,32.08
2023-02-24T09:23:03.873Z,26.13
2023-02-24T09:38:06.346Z,28.02
2023-02-24T09:53:17.472Z,21.80
2023-02-24T10:08:27.423Z,24.48
2023-02-24T10:23:56.738Z,21.25
2023-02-24T10:39:10.951Z,17.25
2023-02-24T10:54:33.520Z,17.35
2023-02-24T11:09:44.132Z,10.90
2023-02-24T11:24:47.405Z,10.75
2023-02-24T11:39:58.473Z,11.48
2023-02-24T11:55:04.061Z,11.70
2023-02-24T12:10:17.223Z,10.93
2023-02-24T12:25:26.593Z,11.25
2023-02-24T12:55:45.001Z,9.13
2023-02-24T13:11:15.492Z,7.30
2023-02-24T13:26:26.285Z,7.97
2023-02-24T13:41:28.298Z,11.35
2023-02-24T13:56:48.581Z,7.65
2023-02-24T14:12:17.665Z,8.38
2023-02-24T14:27:26.283Z,5.03
2023-02-24T14:42:29.396Z,6.00
2023-02-24T14:57:38.213Z,9.05
2023-02-24T15:12:51.221Z,14.25
2023-02-24T15:27:58.527Z,10.27
2023-02-24T15:43:12.189Z,9.68
2023-02-24T15:58:17.545Z,23.88
2023-02-24T16:13:23.080Z,9.23
2023-02-24T16:28:25.591Z,11.38
2023-02-24T16:43:30.535Z,14.95
2023-02-24T16:58:32.551Z,15.52
2023-02-24T17:13:34.567Z,10.52
2023-02-24T17:28:36.615Z,13.13
2023-02-24T17:43:38.701Z,14.48
2023-02-24T17:58:41.772Z,16.13
2023-02-24T18:13:44.314Z,15.50
2023-02-24T18:28:46.619Z,16.33
2023-02-24T18:43:50.387Z,20.05
2023-02-24T18:58:55.437Z,26.35
2023-02-24T19:13:59.259Z,21.02
2023-02-24T19:29:01.497Z,14.25
2023-02-24T19:44:03.971Z,12.40
2023-02-24T19:59:08.180Z,11.52
2023-02-24T20:14:12.838Z,11.15
2023-02-24T20:29:17.148Z,13.23
2023-02-24T20:44:19.352Z,17.00
2023-02-24T20:59:22.277Z,16.30
2023-02-24T21:14:24.319Z,18.63
2023-02-24T21:29:26.339Z,17.55
2023-02-24T21:44:28.575Z,20.60
2023-02-24T21:59:30.734Z,19.67
2023-02-24T22:14:32.892Z,13.73
2023-02-24T22:29:34.850Z,14.50
2023-02-24T22:44:37.026Z,14.18
2023-02-24T22:59:39.115Z,14.60
2023-02-24T23:14:41.145Z,6.80
2023-02-24T23:29:43.208Z,5.80
2023-02-24T23:44:45.629Z,5.50
2023-02-24T23:59:48.028Z,5.10
